Lowndes, Missouri
Current Conditions -  °F | °C
As of 2:53 AM on Wednesday 28 Jan 2015 (Local Time) from KPOF Reporting Station
Clear Clear  
Wind Chill: 32°   Ceiling: Unl
Heat Index: 32°   Visibility: 10mi
Dew Point: 27°   Wind: 3mph
Humidity: 82%   Direction: 30°NNE
Pressure: 30.25"   Gusts: NA
Location:  37.15°N, 90.26°W
Report Text: KPOF 280853Z AUTO 03003KT 10SM CLR 00/M03 A3025 RMK AO2 SLP248 I3001 T00001028 53003
Loading
Personal Weather Stations






























Interactive Weather Map New forecast layout! Learn more

10-Day Weather Forecast

Advertisements
Track Severe Weather on mobile